createdAt,value
2022-12-04T00:09:21.970Z,77218.06
2022-12-04T00:19:24.079Z,77226.16
2022-12-04T00:29:26.148Z,77234.25
2022-12-04T00:39:30.675Z,77224.13
2022-12-04T00:49:33.037Z,77240.31
2022-12-04T00:59:35.000Z,77228.19
2022-12-04T01:09:38.078Z,77234.25
2022-12-04T01:19:42.239Z,77224.13
2022-12-04T01:29:47.056Z,77228.19
2022-12-04T01:39:51.460Z,77240.31
2022-12-04T01:49:53.855Z,77246.41
2022-12-04T02:00:00.804Z,77236.28
2022-12-04T02:10:06.560Z,77224.13
2022-12-04T02:20:24.095Z,77216.03
2022-12-04T02:30:35.592Z,77199.84
2022-12-04T02:40:57.365Z,77218.06
2022-12-04T02:51:01.205Z,77203.88
2022-12-04T03:01:19.739Z,77209.94
2022-12-04T03:11:22.127Z,77205.91
2022-12-04T03:21:28.658Z,77209.94
2022-12-04T03:31:40.595Z,77199.84
2022-12-04T03:42:00.030Z,77222.09
2022-12-04T03:52:11.017Z,77195.78
2022-12-04T04:02:18.698Z,77197.81
2022-12-04T04:12:23.189Z,77199.84
2022-12-04T04:22:54.499Z,77199.84
2022-12-04T04:33:16.258Z,77195.78
2022-12-04T04:43:19.291Z,77193.75
2022-12-04T04:53:29.616Z,77207.94
2022-12-04T05:03:32.398Z,77203.88
2022-12-04T05:13:36.787Z,77203.88
2022-12-04T05:23:43.403Z,77201.84
2022-12-04T05:33:45.445Z,77214.00
2022-12-04T05:43:54.941Z,77232.22
2022-12-04T05:54:02.459Z,77211.97
2022-12-04T06:04:04.619Z,77216.03
2022-12-04T06:14:12.885Z,77236.28
2022-12-04T06:24:18.459Z,77240.31
2022-12-04T06:34:20.596Z,77232.22
2022-12-04T06:44:22.571Z,77252.47
2022-12-04T06:54:24.543Z,77250.44
2022-12-04T07:04:29.055Z,77240.31
2022-12-04T07:14:31.105Z,77250.44
2022-12-04T07:24:35.353Z,77254.50
2022-12-04T07:34:39.821Z,77252.47
2022-12-04T07:44:41.931Z,77248.41
2022-12-04T07:54:47.134Z,77256.53
2022-12-04T08:04:49.230Z,77262.59
2022-12-04T08:14:54.732Z,77272.72
2022-12-04T08:24:56.768Z,77258.53
2022-12-04T08:34:59.283Z,77256.53
2022-12-04T08:45:01.296Z,77248.41
2022-12-04T08:55:08.402Z,77248.41
2022-12-04T09:05:15.199Z,77244.38
2022-12-04T09:15:17.740Z,77232.22
2022-12-04T09:25:22.195Z,77179.59
2022-12-04T09:35:24.331Z,77207.94
2022-12-04T09:45:29.036Z,77220.06
2022-12-04T09:55:41.553Z,77211.97
2022-12-04T10:06:02.448Z,77195.78
2022-12-04T10:16:22.805Z,77179.59
2022-12-04T10:26:31.223Z,77163.38
2022-12-04T10:36:34.675Z,77139.09
2022-12-04T10:46:45.541Z,77118.84
2022-12-04T10:56:58.919Z,77124.94
2022-12-04T11:07:22.338Z,77118.84
2022-12-04T11:17:24.363Z,77094.56
2022-12-04T11:27:31.790Z,77086.47
2022-12-04T11:37:43.639Z,77102.66
2022-12-04T11:47:57.349Z,77090.50
2022-12-04T11:58:16.088Z,77082.41
2022-12-04T12:08:26.361Z,77082.41
2022-12-04T12:18:51.172Z,77076.34
2022-12-04T12:29:20.725Z,77072.28
2022-12-04T12:39:26.868Z,77048.00
2022-12-04T12:49:34.970Z,77058.13
2022-12-04T12:59:42.780Z,77062.16
2022-12-04T13:09:57.049Z,77068.25
2022-12-04T13:20:09.966Z,77066.22
2022-12-04T13:30:21.358Z,77076.34
2022-12-04T13:40:39.876Z,77072.28
2022-12-04T13:50:42.067Z,77094.56
2022-12-04T14:00:46.489Z,77098.59
2022-12-04T14:11:07.424Z,77092.53
2022-12-04T14:21:12.320Z,77114.81
2022-12-04T14:31:36.034Z,77118.84
2022-12-04T14:41:39.005Z,77114.81
2022-12-04T14:52:07.265Z,77118.84
2022-12-04T15:02:16.850Z,77128.97
2022-12-04T15:12:37.171Z,77131.00
2022-12-04T15:22:41.659Z,77135.03
2022-12-04T15:32:44.055Z,77137.06
2022-12-04T15:42:46.258Z,77126.94
2022-12-04T15:53:06.596Z,77128.97
2022-12-04T16:03:28.492Z,77118.84
2022-12-04T16:13:38.794Z,77131.00
2022-12-04T16:23:41.949Z,77149.22
2022-12-04T16:33:46.843Z,77133.03
2022-12-04T16:43:58.315Z,77139.09
2022-12-04T16:54:00.474Z,77149.22
2022-12-04T17:04:02.488Z,77145.16
2022-12-04T17:14:07.690Z,77133.03
2022-12-04T17:24:09.803Z,77135.03
2022-12-04T17:34:16.742Z,77126.94
2022-12-04T17:44:21.299Z,77139.09
2022-12-04T17:54:25.861Z,77131.00
2022-12-04T18:04:28.051Z,77126.94
2022-12-04T18:14:32.695Z,77131.00
2022-12-04T18:24:37.049Z,77135.03
2022-12-04T18:34:39.096Z,77139.09
2022-12-04T18:44:43.586Z,77141.13
2022-12-04T18:54:45.740Z,77143.16
2022-12-04T19:04:50.187Z,77137.06
2022-12-04T19:14:52.437Z,77145.16
2022-12-04T19:24:58.930Z,77147.19
2022-12-04T19:35:03.559Z,77108.72
2022-12-04T19:45:06.054Z,77122.91
2022-12-04T19:55:10.307Z,77126.94
2022-12-04T20:05:12.410Z,77141.13
2022-12-04T20:15:17.319Z,77173.50
2022-12-04T20:25:19.420Z,77175.53
2022-12-04T20:35:23.775Z,77171.50
2022-12-04T20:45:31.123Z,77185.66
2022-12-04T20:55:40.521Z,77163.38
2022-12-04T21:05:50.695Z,77151.25
2022-12-04T21:16:01.873Z,77135.03
2022-12-04T21:26:04.013Z,77131.00
2022-12-04T21:36:12.398Z,77145.16
2022-12-04T21:46:14.676Z,77126.94
2022-12-04T21:56:16.667Z,77131.00
2022-12-04T22:06:22.491Z,77118.84
2022-12-04T22:16:30.688Z,77135.03
2022-12-04T22:26:35.602Z,77124.94
2022-12-04T22:36:39.853Z,77112.78
2022-12-04T22:46:42.113Z,77104.69
2022-12-04T22:56:44.395Z,77131.00
2022-12-04T23:06:46.419Z,77122.91
2022-12-04T23:16:49.486Z,77122.91
2022-12-04T23:26:51.625Z,77124.94
2022-12-04T23:36:56.181Z,77122.91
2022-12-04T23:47:03.572Z,77114.81
2022-12-04T23:57:08.082Z,77110.75
